sensor_id;sensor_type;location;lat;lon;timestamp;pressure;altitude;pressure_sealevel;temperature;humidity
55755;BME280;41674;52.290;-1.474;2023-04-23T00:01:03;99450.67;;;10.03;86.74
55755;BME280;41674;52.290;-1.474;2023-04-23T00:03:32;99448.26;;;9.85;88.99
55755;BME280;41674;52.290;-1.474;2023-04-23T00:06:04;99446.18;;;9.11;91.16
55755;BME280;41674;52.290;-1.474;2023-04-23T00:08:31;99444.86;;;8.88;93.33
55755;BME280;41674;52.290;-1.474;2023-04-23T00:11:00;99442.42;;;8.84;92.69
55755;BME280;41674;52.290;-1.474;2023-04-23T00:13:29;99441.51;;;10.03;89.75
55755;BME280;41674;52.290;-1.474;2023-04-23T00:15:59;99438.51;;;9.36;90.74
55755;BME280;41674;52.290;-1.474;2023-04-23T00:18:27;99434.53;;;10.62;87.14
55755;BME280;41674;52.290;-1.474;2023-04-23T00:20:56;99432.25;;;9.12;93.11
55755;BME280;41674;52.290;-1.474;2023-04-23T00:23:28;99427.97;;;9.85;89.79
55755;BME280;41674;52.290;-1.474;2023-04-23T00:25:55;99422.73;;;9.47;91.95
55755;BME280;41674;52.290;-1.474;2023-04-23T00:28:24;99421.44;;;10.06;90.44
55755;BME280;41674;52.290;-1.474;2023-04-23T00:30:54;99419.91;;;9.33;92.51
55755;BME280;41674;52.290;-1.474;2023-04-23T00:33:24;99421.18;;;9.42;94.34
55755;BME280;41674;52.290;-1.474;2023-04-23T00:35:53;99421.30;;;9.31;95.57
55755;BME280;41674;52.290;-1.474;2023-04-23T00:38:23;99413.83;;;9.35;93.70
55755;BME280;41674;52.290;-1.474;2023-04-23T00:40:52;99415.99;;;10.00;91.25
55755;BME280;41674;52.290;-1.474;2023-04-23T00:43:22;99414.32;;;10.00;92.26
55755;BME280;41674;52.290;-1.474;2023-04-23T00:45:52;99416.88;;;10.64;88.34
55755;BME280;41674;52.290;-1.474;2023-04-23T00:48:21;99411.27;;;10.66;88.19
55755;BME280;41674;52.290;-1.474;2023-04-23T00:50:57;99407.29;;;11.25;85.26
55755;BME280;41674;52.290;-1.474;2023-04-23T00:53:20;99403.24;;;10.96;87.13
55755;BME280;41674;52.290;-1.474;2023-04-23T00:55:50;99396.34;;;11.43;85.21
55755;BME280;41674;52.290;-1.474;2023-04-23T00:58:19;99394.36;;;11.41;85.29
55755;BME280;41674;52.290;-1.474;2023-04-23T01:00:48;99393.30;;;10.97;85.86
55755;BME280;41674;52.290;-1.474;2023-04-23T01:03:18;99392.72;;;9.83;89.19
55755;BME280;41674;52.290;-1.474;2023-04-23T01:05:47;99388.54;;;10.48;87.63
55755;BME280;41674;52.290;-1.474;2023-04-23T01:08:17;99382.54;;;11.06;86.71
55755;BME280;41674;52.290;-1.474;2023-04-23T01:10:46;99381.68;;;10.26;89.03
55755;BME280;41674;52.290;-1.474;2023-04-23T01:13:15;99378.70;;;10.80;87.22
55755;BME280;41674;52.290;-1.474;2023-04-23T01:15:45;99372.49;;;11.34;87.49
55755;BME280;41674;52.290;-1.474;2023-04-23T01:18:14;99377.93;;;10.27;89.32
55755;BME280;41674;52.290;-1.474;2023-04-23T01:20:44;99373.22;;;10.58;88.31
55755;BME280;41674;52.290;-1.474;2023-04-23T01:23:13;99368.66;;;10.94;87.78
55755;BME280;41674;52.290;-1.474;2023-04-23T01:25:43;99359.78;;;11.09;85.90
55755;BME280;41674;52.290;-1.474;2023-04-23T01:28:13;99362.88;;;10.72;87.09
55755;BME280;41674;52.290;-1.474;2023-04-23T01:30:43;99356.06;;;10.92;86.47
55755;BME280;41674;52.290;-1.474;2023-04-23T01:33:12;99358.39;;;11.04;86.12
55755;BME280;41674;52.290;-1.474;2023-04-23T01:35:42;99359.78;;;10.13;90.18
55755;BME280;41674;52.290;-1.474;2023-04-23T01:38:10;99356.78;;;10.53;87.92
55755;BME280;41674;52.290;-1.474;2023-04-23T01:40:39;99354.55;;;10.70;88.40
55755;BME280;41674;52.290;-1.474;2023-04-23T01:43:08;99349.28;;;11.32;86.31
55755;BME280;41674;52.290;-1.474;2023-04-23T01:45:38;99354.59;;;10.88;88.21
55755;BME280;41674;52.290;-1.474;2023-04-23T01:48:07;99347.04;;;11.33;85.56
55755;BME280;41674;52.290;-1.474;2023-04-23T01:50:37;99347.11;;;11.95;84.45
55755;BME280;41674;52.290;-1.474;2023-04-23T01:53:06;99344.16;;;10.93;87.04
55755;BME280;41674;52.290;-1.474;2023-04-23T01:55:37;99345.91;;;10.55;87.27
55755;BME280;41674;52.290;-1.474;2023-04-23T01:58:05;99345.63;;;10.52;87.79
55755;BME280;41674;52.290;-1.474;2023-04-23T02:00:34;99338.07;;;11.48;84.77
55755;BME280;41674;52.290;-1.474;2023-04-23T02:03:04;99335.91;;;12.21;83.06
55755;BME280;41674;52.290;-1.474;2023-04-23T02:05:34;99334.65;;;12.11;82.36
55755;BME280;41674;52.290;-1.474;2023-04-23T02:08:02;99336.81;;;11.68;84.56
55755;BME280;41674;52.290;-1.474;2023-04-23T02:10:32;99336.64;;;12.15;83.75
55755;BME280;41674;52.290;-1.474;2023-04-23T02:13:02;99332.66;;;12.06;83.03
55755;BME280;41674;52.290;-1.474;2023-04-23T02:15:30;99329.25;;;11.88;83.44
55755;BME280;41674;52.290;-1.474;2023-04-23T02:18:00;99327.38;;;11.91;84.05
55755;BME280;41674;52.290;-1.474;2023-04-23T02:20:30;99325.18;;;11.42;86.29
55755;BME280;41674;52.290;-1.474;2023-04-23T02:22:59;99324.33;;;12.06;84.51
55755;BME280;41674;52.290;-1.474;2023-04-23T02:25:29;99323.52;;;11.81;84.35
55755;BME280;41674;52.290;-1.474;2023-04-23T02:27:58;99320.16;;;11.40;85.99
55755;BME280;41674;52.290;-1.474;2023-04-23T02:30:27;99320.30;;;11.79;84.54
55755;BME280;41674;52.290;-1.474;2023-04-23T02:32:57;99317.99;;;12.01;83.84
55755;BME280;41674;52.290;-1.474;2023-04-23T02:35:26;99316.90;;;12.43;82.60
55755;BME280;41674;52.290;-1.474;2023-04-23T02:37:56;99314.22;;;12.66;81.72
55755;BME280;41674;52.290;-1.474;2023-04-23T02:40:25;99311.44;;;12.72;81.53
55755;BME280;41674;52.290;-1.474;2023-04-23T02:42:55;99312.27;;;12.36;82.21
55755;BME280;41674;52.290;-1.474;2023-04-23T02:45:24;99307.15;;;12.73;81.45
55755;BME280;41674;52.290;-1.474;2023-04-23T02:47:59;99310.88;;;12.32;82.94
55755;BME280;41674;52.290;-1.474;2023-04-23T02:50:23;99311.17;;;11.53;86.38
55755;BME280;41674;52.290;-1.474;2023-04-23T02:52:53;99310.88;;;11.84;85.14
55755;BME280;41674;52.290;-1.474;2023-04-23T02:55:22;99308.29;;;11.53;85.89
55755;BME280;41674;52.290;-1.474;2023-04-23T02:57:51;99307.63;;;11.42;87.97
55755;BME280;41674;52.290;-1.474;2023-04-23T03:00:20;99308.82;;;11.90;86.04
55755;BME280;41674;52.290;-1.474;2023-04-23T03:02:49;99307.84;;;10.51;90.38
55755;BME280;41674;52.290;-1.474;2023-04-23T03:05:19;99308.15;;;12.04;84.85
55755;BME280;41674;52.290;-1.474;2023-04-23T03:07:48;99308.78;;;11.90;85.51
55755;BME280;41674;52.290;-1.474;2023-04-23T03:10:18;99306.03;;;12.26;84.21
55755;BME280;41674;52.290;-1.474;2023-04-23T03:12:47;99301.23;;;12.71;82.69
55755;BME280;41674;52.290;-1.474;2023-04-23T03:15:17;99303.57;;;12.41;84.99
55755;BME280;41674;52.290;-1.474;2023-04-23T03:17:46;99299.23;;;12.97;81.70
55755;BME280;41674;52.290;-1.474;2023-04-23T03:20:16;99296.11;;;13.16;81.01
55755;BME280;41674;52.290;-1.474;2023-04-23T03:22:46;99295.98;;;12.92;81.16
55755;BME280;41674;52.290;-1.474;2023-04-23T03:25:15;99295.09;;;13.32;80.59
55755;BME280;41674;52.290;-1.474;2023-04-23T03:27:45;99293.58;;;13.09;80.83
55755;BME280;41674;52.290;-1.474;2023-04-23T03:30:14;99293.44;;;12.89;80.69
55755;BME280;41674;52.290;-1.474;2023-04-23T03:32:44;99295.42;;;12.33;83.31
55755;BME280;41674;52.290;-1.474;2023-04-23T03:35:13;99289.51;;;13.27;81.22
55755;BME280;41674;52.290;-1.474;2023-04-23T03:37:42;99291.41;;;13.04;81.77
55755;BME280;41674;52.290;-1.474;2023-04-23T03:40:11;99286.10;;;13.11;80.35
55755;BME280;41674;52.290;-1.474;2023-04-23T03:42:41;99288.40;;;12.10;84.31
55755;BME280;41674;52.290;-1.474;2023-04-23T03:45:11;99284.85;;;13.48;78.71
55755;BME280;41674;52.290;-1.474;2023-04-23T03:47:40;99282.47;;;13.09;78.19
55755;BME280;41674;52.290;-1.474;2023-04-23T03:50:10;99282.48;;;13.27;77.34
55755;BME280;41674;52.290;-1.474;2023-04-23T03:52:40;99283.31;;;13.48;77.52
55755;BME280;41674;52.290;-1.474;2023-04-23T03:55:09;99286.64;;;12.23;80.90
55755;BME280;41674;52.290;-1.474;2023-04-23T03:57:38;99294.38;;;11.00;87.20
55755;BME280;41674;52.290;-1.474;2023-04-23T04:00:09;99294.74;;;11.40;86.54
55755;BME280;41674;52.290;-1.474;2023-04-23T04:02:37;99295.48;;;11.71;87.84
55755;BME280;41674;52.290;-1.474;2023-04-23T04:05:07;99298.08;;;11.23;89.98
55755;BME280;41674;52.290;-1.474;2023-04-23T04:07:36;99299.86;;;10.49;94.80
55755;BME280;41674;52.290;-1.474;2023-04-23T04:10:11;99303.91;;;9.74;97.31
55755;BME280;41674;52.290;-1.474;2023-04-23T04:12:35;99304.98;;;10.09;96.35
55755;BME280;41674;52.290;-1.474;2023-04-23T04:15:06;99306.86;;;9.51;100.00
55755;BME280;41674;52.290;-1.474;2023-04-23T04:17:34;99300.47;;;8.99;100.00
55755;BME280;41674;52.290;-1.474;2023-04-23T04:20:04;99305.29;;;9.45;100.00
55755;BME280;41674;52.290;-1.474;2023-04-23T04:22:33;99306.20;;;9.11;100.00
55755;BME280;41674;52.290;-1.474;2023-04-23T04:25:03;99303.58;;;8.65;100.00
55755;BME280;41674;52.290;-1.474;2023-04-23T04:27:32;99300.93;;;8.56;100.00
55755;BME280;41674;52.290;-1.474;2023-04-23T04:30:02;99301.29;;;9.35;100.00
55755;BME280;41674;52.290;-1.474;2023-04-23T04:32:30;99308.28;;;9.00;100.00
55755;BME280;41674;52.290;-1.474;2023-04-23T04:34:59;99306.69;;;8.87;100.00
55755;BME280;41674;52.290;-1.474;2023-04-23T04:37:29;99308.56;;;9.20;100.00
55755;BME280;41674;52.290;-1.474;2023-04-23T04:39:58;99312.89;;;8.92;100.00
55755;BME280;41674;52.290;-1.474;2023-04-23T04:42:28;99317.63;;;8.70;100.00
55755;BME280;41674;52.290;-1.474;2023-04-23T04:44:58;99322.24;;;8.23;100.00
55755;BME280;41674;52.290;-1.474;2023-04-23T04:47:27;99324.23;;;7.86;100.00
55755;BME280;41674;52.290;-1.474;2023-04-23T04:49:56;99324.97;;;8.23;100.00
55755;BME280;41674;52.290;-1.474;2023-04-23T04:52:26;99332.90;;;7.83;100.00
55755;BME280;41674;52.290;-1.474;2023-04-23T04:55:00;99335.25;;;7.83;100.00
55755;BME280;41674;52.290;-1.474;2023-04-23T04:57:25;99335.77;;;8.40;100.00
55755;BME280;41674;52.290;-1.474;2023-04-23T04:59:55;99339.99;;;8.58;100.00
55755;BME280;41674;52.290;-1.474;2023-04-23T05:02:25;99342.20;;;8.54;100.00
55755;BME280;41674;52.290;-1.474;2023-04-23T05:04:54;99342.43;;;8.84;100.00
55755;BME280;41674;52.290;-1.474;2023-04-23T05:07:23;99347.04;;;8.65;100.00
55755;BME280;41674;52.290;-1.474;2023-04-23T05:09:58;99346.14;;;9.73;99.67
55755;BME280;41674;52.290;-1.474;2023-04-23T05:12:23;99347.46;;;9.16;99.52
55755;BME280;41674;52.290;-1.474;2023-04-23T05:14:52;99349.97;;;8.93;100.00
55755;BME280;41674;52.290;-1.474;2023-04-23T05:17:21;99351.68;;;8.66;100.00
55755;BME280;41674;52.290;-1.474;2023-04-23T05:19:50;99351.44;;;8.91;100.00
55755;BME280;41674;52.290;-1.474;2023-04-23T05:22:21;99356.41;;;8.98;100.00
55755;BME280;41674;52.290;-1.474;2023-04-23T05:24:50;99357.75;;;8.41;100.00
55755;BME280;41674;52.290;-1.474;2023-04-23T05:27:19;99354.05;;;8.65;100.00
55755;BME280;41674;52.290;-1.474;2023-04-23T05:29:53;99356.89;;;9.03;99.15
55755;BME280;41674;52.290;-1.474;2023-04-23T05:32:18;99357.02;;;9.41;98.86
55755;BME280;41674;52.290;-1.474;2023-04-23T05:34:48;99366.18;;;9.54;96.66
55755;BME280;41674;52.290;-1.474;2023-04-23T05:37:17;99366.97;;;9.64;95.00
55755;BME280;41674;52.290;-1.474;2023-04-23T05:39:46;99367.66;;;9.63;95.34
55755;BME280;41674;52.290;-1.474;2023-04-23T05:42:15;99366.26;;;9.38;97.73
55755;BME280;41674;52.290;-1.474;2023-04-23T05:44:44;99369.38;;;10.28;93.59
55755;BME280;41674;52.290;-1.474;2023-04-23T05:47:14;99367.82;;;10.53;91.05
55755;BME280;41674;52.290;-1.474;2023-04-23T05:49:43;99368.88;;;10.79;89.69
55755;BME280;41674;52.290;-1.474;2023-04-23T05:52:12;99364.53;;;10.93;87.95
55755;BME280;41674;52.290;-1.474;2023-04-23T05:54:41;99365.99;;;11.59;85.21
55755;BME280;41674;52.290;-1.474;2023-04-23T05:57:11;99362.70;;;11.78;84.87
55755;BME280;41674;52.290;-1.474;2023-04-23T05:59:41;99362.20;;;11.78;84.13
55755;BME280;41674;52.290;-1.474;2023-04-23T06:02:11;99366.56;;;11.17;86.30
55755;BME280;41674;52.290;-1.474;2023-04-23T06:04:40;99367.67;;;11.63;86.38
55755;BME280;41674;52.290;-1.474;2023-04-23T06:07:09;99368.23;;;11.26;86.28
55755;BME280;41674;52.290;-1.474;2023-04-23T06:09:39;99366.66;;;11.73;85.49
55755;BME280;41674;52.290;-1.474;2023-04-23T06:12:10;99371.13;;;10.59;90.21
55755;BME280;41674;52.290;-1.474;2023-04-23T06:14:38;99374.74;;;9.54;95.81
55755;BME280;41674;52.290;-1.474;2023-04-23T06:17:08;99373.80;;;9.43;95.23
55755;BME280;41674;52.290;-1.474;2023-04-23T06:19:38;99372.20;;;9.68;95.81
55755;BME280;41674;52.290;-1.474;2023-04-23T06:22:07;99371.78;;;10.07;93.76
55755;BME280;41674;52.290;-1.474;2023-04-23T06:24:36;99371.67;;;10.48;92.51
55755;BME280;41674;52.290;-1.474;2023-04-23T06:27:06;99369.64;;;9.64;96.26
55755;BME280;41674;52.290;-1.474;2023-04-23T06:29:35;99375.13;;;8.96;97.41
55755;BME280;41674;52.290;-1.474;2023-04-23T06:32:05;99383.07;;;9.40;96.37
55755;BME280;41674;52.290;-1.474;2023-04-23T06:34:34;99386.93;;;9.36;98.92
55755;BME280;41674;52.290;-1.474;2023-04-23T06:37:04;99386.95;;;9.51;97.06
55755;BME280;41674;52.290;-1.474;2023-04-23T06:39:33;99392.95;;;9.16;98.25
55755;BME280;41674;52.290;-1.474;2023-04-23T06:42:03;99394.13;;;9.68;96.15
55755;BME280;41674;52.290;-1.474;2023-04-23T06:44:32;99394.67;;;8.88;99.17
55755;BME280;41674;52.290;-1.474;2023-04-23T06:47:01;99388.69;;;9.04;98.08
55755;BME280;41674;52.290;-1.474;2023-04-23T06:49:30;99389.55;;;8.67;96.94
55755;BME280;41674;52.290;-1.474;2023-04-23T06:52:00;99390.12;;;9.45;95.40
55755;BME280;41674;52.290;-1.474;2023-04-23T06:54:29;99392.57;;;9.53;96.50
55755;BME280;41674;52.290;-1.474;2023-04-23T06:56:59;99391.81;;;8.95;98.15
55755;BME280;41674;52.290;-1.474;2023-04-23T06:59:28;99385.89;;;9.35;96.12
55755;BME280;41674;52.290;-1.474;2023-04-23T07:01:58;99384.19;;;9.32;95.20
55755;BME280;41674;52.290;-1.474;2023-04-23T07:04:27;99389.75;;;8.75;99.00
55755;BME280;41674;52.290;-1.474;2023-04-23T07:06:57;99395.06;;;9.97;94.98
55755;BME280;41674;52.290;-1.474;2023-04-23T07:09:27;99399.37;;;9.49;97.14
55755;BME280;41674;52.290;-1.474;2023-04-23T07:11:56;99406.19;;;9.46;96.46
55755;BME280;41674;52.290;-1.474;2023-04-23T07:14:25;99408.05;;;9.46;96.11
55755;BME280;41674;52.290;-1.474;2023-04-23T07:16:54;99407.53;;;9.20;98.25
55755;BME280;41674;52.290;-1.474;2023-04-23T07:19:24;99404.32;;;8.67;98.85
55755;BME280;41674;52.290;-1.474;2023-04-23T07:21:54;99402.57;;;9.17;97.78
55755;BME280;41674;52.290;-1.474;2023-04-23T07:24:23;99402.84;;;8.79;100.00
55755;BME280;41674;52.290;-1.474;2023-04-23T07:26:52;99398.28;;;8.62;100.00
55755;BME280;41674;52.290;-1.474;2023-04-23T07:29:22;99397.54;;;8.68;100.00
55755;BME280;41674;52.290;-1.474;2023-04-23T07:31:51;99395.28;;;9.47;99.93
55755;BME280;41674;52.290;-1.474;2023-04-23T07:34:20;99396.40;;;8.85;100.00
55755;BME280;41674;52.290;-1.474;2023-04-23T07:36:50;99396.93;;;9.83;97.89
55755;BME280;41674;52.290;-1.474;2023-04-23T07:39:20;99395.57;;;9.92;96.52
55755;BME280;41674;52.290;-1.474;2023-04-23T07:41:50;99399.66;;;9.77;97.62
55755;BME280;41674;52.290;-1.474;2023-04-23T07:44:18;99405.85;;;8.89;99.86
55755;BME280;41674;52.290;-1.474;2023-04-23T07:46:48;99404.35;;;9.50;100.00
55755;BME280;41674;52.290;-1.474;2023-04-23T07:49:18;99402.92;;;9.38;99.47
55755;BME280;41674;52.290;-1.474;2023-04-23T07:51:47;99400.86;;;9.25;98.66
55755;BME280;41674;52.290;-1.474;2023-04-23T07:54:17;99400.96;;;10.14;96.24
55755;BME280;41674;52.290;-1.474;2023-04-23T07:56:47;99405.00;;;10.35;93.77
55755;BME280;41674;52.290;-1.474;2023-04-23T07:59:16;99405.93;;;9.78;94.43
55755;BME280;41674;52.290;-1.474;2023-04-23T08:01:46;99410.34;;;9.74;94.23
55755;BME280;41674;52.290;-1.474;2023-04-23T08:04:15;99409.73;;;9.38;96.53
55755;BME280;41674;52.290;-1.474;2023-04-23T08:06:45;99413.99;;;8.69;99.27
55755;BME280;41674;52.290;-1.474;2023-04-23T08:09:14;99411.93;;;9.42;97.99
55755;BME280;41674;52.290;-1.474;2023-04-23T08:11:44;99413.68;;;9.69;96.76
55755;BME280;41674;52.290;-1.474;2023-04-23T08:14:13;99407.46;;;9.49;97.24
55755;BME280;41674;52.290;-1.474;2023-04-23T08:16:43;99413.34;;;9.40;100.00
55755;BME280;41674;52.290;-1.474;2023-04-23T08:19:12;99412.76;;;9.59;96.31
55755;BME280;41674;52.290;-1.474;2023-04-23T08:21:42;99419.17;;;9.12;99.79
55755;BME280;41674;52.290;-1.474;2023-04-23T08:24:11;99423.48;;;8.80;99.45
55755;BME280;41674;52.290;-1.474;2023-04-23T08:26:41;99423.26;;;9.02;99.15
55755;BME280;41674;52.290;-1.474;2023-04-23T08:29:10;99427.37;;;9.20;98.68
55755;BME280;41674;52.290;-1.474;2023-04-23T08:31:40;99424.92;;;9.49;98.13
55755;BME280;41674;52.290;-1.474;2023-04-23T08:34:09;99424.22;;;9.29;97.86
55755;BME280;41674;52.290;-1.474;2023-04-23T08:36:38;99426.41;;;9.94;95.15
55755;BME280;41674;52.290;-1.474;2023-04-23T08:39:08;99428.76;;;9.94;91.78
55755;BME280;41674;52.290;-1.474;2023-04-23T08:41:39;99427.04;;;10.17;93.42
55755;BME280;41674;52.290;-1.474;2023-04-23T08:44:12;99426.78;;;9.76;93.78
55755;BME280;41674;52.290;-1.474;2023-04-23T08:46:36;99429.04;;;10.63;90.48
55755;BME280;41674;52.290;-1.474;2023-04-23T08:49:07;99427.56;;;11.06;86.92
55755;BME280;41674;52.290;-1.474;2023-04-23T08:51:37;99430.77;;;10.68;87.80
55755;BME280;41674;52.290;-1.474;2023-04-23T08:54:06;99431.56;;;10.80;87.76
55755;BME280;41674;52.290;-1.474;2023-04-23T08:56:34;99429.67;;;11.69;84.77
55755;BME280;41674;52.290;-1.474;2023-04-23T08:59:03;99431.65;;;9.75;89.25
55755;BME280;41674;52.290;-1.474;2023-04-23T09:01:32;99431.53;;;10.39;90.39
55755;BME280;41674;52.290;-1.474;2023-04-23T09:04:02;99434.93;;;10.11;90.49
55755;BME280;41674;52.290;-1.474;2023-04-23T09:06:31;99433.23;;;9.71;90.63
55755;BME280;41674;52.290;-1.474;2023-04-23T09:09:00;99432.38;;;11.33;86.35
55755;BME280;41674;52.290;-1.474;2023-04-23T09:11:30;99427.04;;;11.46;81.51
55755;BME280;41674;52.290;-1.474;2023-04-23T09:13:59;99427.48;;;11.68;80.52
55755;BME280;41674;52.290;-1.474;2023-04-23T09:16:29;99436.69;;;10.25;78.58
55755;BME280;41674;52.290;-1.474;2023-04-23T09:18:58;99429.69;;;11.90;79.33
55755;BME280;41674;52.290;-1.474;2023-04-23T09:21:27;99427.08;;;12.01;79.04
55755;BME280;41674;52.290;-1.474;2023-04-23T09:23:57;99428.04;;;11.28;76.41
55755;BME280;41674;52.290;-1.474;2023-04-23T09:26:26;99423.83;;;11.86;81.78
55755;BME280;41674;52.290;-1.474;2023-04-23T09:28:56;99425.07;;;11.82;80.39
55755;BME280;41674;52.290;-1.474;2023-04-23T09:31:25;99423.79;;;11.74;82.08
55755;BME280;41674;52.290;-1.474;2023-04-23T09:33:54;99427.54;;;11.65;82.13
55755;BME280;41674;52.290;-1.474;2023-04-23T09:36:24;99423.20;;;11.41;80.98
55755;BME280;41674;52.290;-1.474;2023-04-23T09:38:55;99430.44;;;10.66;81.02
55755;BME280;41674;52.290;-1.474;2023-04-23T09:41:23;99426.08;;;11.06;80.24
55755;BME280;41674;52.290;-1.474;2023-04-23T09:43:52;99422.25;;;12.01;79.26
55755;BME280;41674;52.290;-1.474;2023-04-23T09:46:32;99423.20;;;12.00;80.07
55755;BME280;41674;52.290;-1.474;2023-04-23T09:48:50;99423.67;;;12.32;78.42
55755;BME280;41674;52.290;-1.474;2023-04-23T09:51:19;99424.69;;;11.89;73.70
55755;BME280;41674;52.290;-1.474;2023-04-23T09:53:48;99422.64;;;11.98;70.63
55755;BME280;41674;52.290;-1.474;2023-04-23T09:56:19;99419.61;;;11.75;74.98
55755;BME280;41674;52.290;-1.474;2023-04-23T09:58:47;99418.56;;;12.51;74.30
55755;BME280;41674;52.290;-1.474;2023-04-23T10:01:17;99418.70;;;12.55;75.94
55755;BME280;41674;52.290;-1.474;2023-04-23T10:03:52;99416.90;;;12.25;73.72
55755;BME280;41674;52.290;-1.474;2023-04-23T10:06:17;99415.03;;;12.59;75.13
55755;BME280;41674;52.290;-1.474;2023-04-23T10:08:45;99419.51;;;11.89;77.50
55755;BME280;41674;52.290;-1.474;2023-04-23T10:11:15;99419.01;;;12.97;71.41
55755;BME280;41674;52.290;-1.474;2023-04-23T10:13:45;99417.81;;;13.26;68.67
55755;BME280;41674;52.290;-1.474;2023-04-23T10:16:14;99415.99;;;13.47;67.60
55755;BME280;41674;52.290;-1.474;2023-04-23T10:18:44;99417.95;;;11.96;71.79
55755;BME280;41674;52.290;-1.474;2023-04-23T10:21:14;99420.17;;;12.56;71.52
55755;BME280;41674;52.290;-1.474;2023-04-23T10:23:43;99419.68;;;12.47;70.94
55755;BME280;41674;52.290;-1.474;2023-04-23T10:26:14;99418.02;;;12.19;72.73
55755;BME280;41674;52.290;-1.474;2023-04-23T10:28:46;99414.34;;;12.30;71.87
55755;BME280;41674;52.290;-1.474;2023-04-23T10:31:11;99412.47;;;13.45;70.31
55755;BME280;41674;52.290;-1.474;2023-04-23T10:33:41;99415.12;;;12.87;73.26
55755;BME280;41674;52.290;-1.474;2023-04-23T10:36:10;99417.27;;;12.75;72.74
55755;BME280;41674;52.290;-1.474;2023-04-23T10:38:40;99413.33;;;13.19;69.94
55755;BME280;41674;52.290;-1.474;2023-04-23T10:41:10;99411.34;;;13.36;73.76
55755;BME280;41674;52.290;-1.474;2023-04-23T10:43:40;99412.16;;;13.45;75.34
55755;BME280;41674;52.290;-1.474;2023-04-23T10:48:50;99414.34;;;13.74;72.41
55755;BME280;41674;52.290;-1.474;2023-04-23T10:51:08;99410.94;;;13.95;71.22
55755;BME280;41674;52.290;-1.474;2023-04-23T10:53:37;99412.93;;;13.43;68.95
55755;BME280;41674;52.290;-1.474;2023-04-23T10:56:08;99407.76;;;14.06;64.12
55755;BME280;41674;52.290;-1.474;2023-04-23T10:58:47;99412.09;;;13.21;64.74
55755;BME280;41674;52.290;-1.474;2023-04-23T11:01:07;99413.34;;;12.91;66.27
55755;BME280;41674;52.290;-1.474;2023-04-23T11:03:37;99411.87;;;13.78;64.00
55755;BME280;41674;52.290;-1.474;2023-04-23T11:06:07;99416.31;;;12.57;69.90
55755;BME280;41674;52.290;-1.474;2023-04-23T11:08:34;99416.29;;;12.08;68.91
55755;BME280;41674;52.290;-1.474;2023-04-23T11:11:07;99415.06;;;12.33;68.86
55755;BME280;41674;52.290;-1.474;2023-04-23T11:13:33;99413.54;;;12.69;69.13
55755;BME280;41674;52.290;-1.474;2023-04-23T11:16:13;99407.24;;;13.28;65.51
55755;BME280;41674;52.290;-1.474;2023-04-23T11:21:03;99409.06;;;12.59;71.86
55755;BME280;41674;52.290;-1.474;2023-04-23T11:23:31;99407.57;;;12.48;72.59
55755;BME280;41674;52.290;-1.474;2023-04-23T11:26:01;99411.02;;;12.01;75.85
55755;BME280;41674;52.290;-1.474;2023-04-23T11:28:32;99417.29;;;11.46;77.22
55755;BME280;41674;52.290;-1.474;2023-04-23T11:31:00;99417.27;;;11.83;76.06
55755;BME280;41674;52.290;-1.474;2023-04-23T11:33:29;99417.46;;;11.59;73.41
55755;BME280;41674;52.290;-1.474;2023-04-23T11:35:58;99417.06;;;11.22;75.82
55755;BME280;41674;52.290;-1.474;2023-04-23T11:38:31;99415.35;;;11.72;74.21
55755;BME280;41674;52.290;-1.474;2023-04-23T11:40:58;99417.50;;;11.89;77.17
55755;BME280;41674;52.290;-1.474;2023-04-23T11:43:27;99418.35;;;12.12;79.21
55755;BME280;41674;52.290;-1.474;2023-04-23T11:45:56;99421.80;;;11.15;79.13
55755;BME280;41674;52.290;-1.474;2023-04-23T11:48:26;99423.73;;;11.31;77.79
55755;BME280;41674;52.290;-1.474;2023-04-23T11:50:55;99422.12;;;11.39;78.25
55755;BME280;41674;52.290;-1.474;2023-04-23T11:53:25;99419.12;;;11.84;74.79
55755;BME280;41674;52.290;-1.474;2023-04-23T11:55:54;99419.65;;;12.04;76.58
55755;BME280;41674;52.290;-1.474;2023-04-23T11:58:24;99421.69;;;12.14;75.73
55755;BME280;41674;52.290;-1.474;2023-04-23T12:00:56;99419.49;;;12.40;67.62
55755;BME280;41674;52.290;-1.474;2023-04-23T12:03:25;99417.59;;;13.06;68.90
55755;BME280;41674;52.290;-1.474;2023-04-23T12:05:53;99419.70;;;12.80;68.56
55755;BME280;41674;52.290;-1.474;2023-04-23T12:08:22;99414.50;;;13.99;66.17
55755;BME280;41674;52.290;-1.474;2023-04-23T12:10:53;99414.49;;;14.22;67.71
55755;BME280;41674;52.290;-1.474;2023-04-23T12:13:24;99419.34;;;13.29;71.48
55755;BME280;41674;52.290;-1.474;2023-04-23T12:15:53;99417.90;;;14.39;65.93
55755;BME280;41674;52.290;-1.474;2023-04-23T12:18:27;99419.55;;;14.46;68.97
55755;BME280;41674;52.290;-1.474;2023-04-23T12:20:51;99418.55;;;14.64;62.90
55755;BME280;41674;52.290;-1.474;2023-04-23T12:23:25;99416.07;;;14.89;58.85
55755;BME280;41674;52.290;-1.474;2023-04-23T12:25:52;99412.24;;;14.49;60.31
55755;BME280;41674;52.290;-1.474;2023-04-23T12:28:23;99416.81;;;14.57;62.42
55755;BME280;41674;52.290;-1.474;2023-04-23T12:30:58;99419.99;;;14.30;62.27
55755;BME280;41674;52.290;-1.474;2023-04-23T12:38:31;99412.86;;;14.41;64.68
55755;BME280;41674;52.290;-1.474;2023-04-23T12:40:57;99410.26;;;14.03;70.08
55755;BME280;41674;52.290;-1.474;2023-04-23T12:43:29;99412.48;;;14.27;68.87
55755;BME280;41674;52.290;-1.474;2023-04-23T12:46:00;99415.77;;;13.97;68.56
55755;BME280;41674;52.290;-1.474;2023-04-23T12:48:20;99421.94;;;12.89;70.57
55755;BME280;41674;52.290;-1.474;2023-04-23T12:50:52;99425.11;;;12.13;73.21
55755;BME280;41674;52.290;-1.474;2023-04-23T12:53:16;99427.60;;;11.89;77.70
55755;BME280;41674;52.290;-1.474;2023-04-23T12:55:44;99427.06;;;12.57;74.52
55755;BME280;41674;52.290;-1.474;2023-04-23T12:58:14;99426.64;;;12.61;72.09
55755;BME280;41674;52.290;-1.474;2023-04-23T13:00:43;99426.43;;;12.16;71.19
55755;BME280;41674;52.290;-1.474;2023-04-23T13:03:13;99434.19;;;11.64;76.13
55755;BME280;41674;52.290;-1.474;2023-04-23T13:05:42;99434.20;;;11.68;74.81
55755;BME280;41674;52.290;-1.474;2023-04-23T13:08:12;99437.56;;;11.09;77.19
55755;BME280;41674;52.290;-1.474;2023-04-23T13:10:42;99440.92;;;10.71;80.38
55755;BME280;41674;52.290;-1.474;2023-04-23T13:13:12;99436.74;;;10.43;80.00